Time;durP1;ratioP1;P1;durP2;ratioP2;P2;SDS_P1;SDS_P2;PMS_P1;PMS_P2;Temp;Humidity;BMP_temperature;BMP_pressure;BME280_temperature;BME280_humidity;BME280_pressure;Samples;Min_cycle;Max_cycle;Signal;HPM_P1;HPM_P2
2023/10/01 00:02:43;;;;;;;15.32;4.97;;;21.30;55.10;;;;;;5999988;29;20038;-76
2023/10/01 00:05:44;;;;;;;15.43;4.25;;;21.30;55.10;;;;;;5992072;29;20034;-79
2023/10/01 00:08:45;;;;;;;10.85;4.00;;;21.30;55.20;;;;;;5985215;29;20027;-77
2023/10/01 00:11:46;;;;;;;10.80;3.72;;;21.30;55.40;;;;;;5983151;29;20045;-78
2023/10/01 00:14:47;;;;;;;18.02;5.00;;;21.30;55.90;;;;;;5965677;29;20106;-78
2023/10/01 00:17:48;;;;;;;11.18;4.13;;;21.30;56.20;;;;;;5991200;29;20136;-77
2023/10/01 00:20:49;;;;;;;11.88;4.25;;;21.20;56.30;;;;;;6000176;29;20034;-77
2023/10/01 00:23:53;;;;;;;16.90;4.45;;;21.20;56.60;;;;;;5991918;29;20407;-78
2023/10/01 00:26:54;;;;;;;10.65;4.15;;;21.20;56.70;;;;;;5987916;29;20041;-76
2023/10/01 00:29:56;;;;;;;12.52;4.00;;;21.20;56.80;;;;;;5989836;29;20375;-77
2023/10/01 00:32:58;;;;;;;9.73;3.50;;;21.10;56.90;;;;;;5964616;29;20026;-76
2023/10/01 00:35:59;;;;;;;13.30;3.97;;;21.10;56.90;;;;;;5976747;29;20135;-75
2023/10/01 00:39:03;;;;;;;19.42;4.80;;;21.10;57.10;;;;;;5981700;29;20043;-77
2023/10/01 00:42:06;;;;;;;22.25;4.65;;;21.00;57.00;;;;;;5981665;29;20150;-77
2023/10/01 00:45:11;;;;;;;11.95;4.13;;;21.00;57.50;;;;;;5998941;29;20400;-76
2023/10/01 00:48:14;;;;;;;13.38;3.88;;;20.90;57.70;;;;;;5997651;29;20041;-77
2023/10/01 00:51:15;;;;;;;11.02;4.10;;;20.80;57.90;;;;;;5991169;29;20027;-77
2023/10/01 00:54:16;;;;;;;12.25;4.43;;;20.80;58.20;;;;;;5961948;29;20153;-76
2023/10/01 00:57:17;;;;;;;15.52;4.43;;;20.70;58.50;;;;;;5991908;29;20050;-78
2023/10/01 01:00:19;;;;;;;16.70;4.30;;;20.70;58.70;;;;;;5991259;29;20495;-79
2023/10/01 01:03:22;;;;;;;14.00;4.30;;;20.60;58.90;;;;;;6007856;29;20042;-77
2023/10/01 01:06:24;;;;;;;10.80;4.05;;;20.60;59.00;;;;;;5960995;29;20464;-79
2023/10/01 01:09:28;;;;;;;15.77;4.25;;;20.00;58.80;;;;;;5995341;29;20130;-76
2023/10/01 01:12:29;;;;;;;11.35;3.72;;;20.60;59.20;;;;;;5977987;29;20228;-77
2023/10/01 01:15:33;;;;;;;14.02;4.25;;;20.60;59.30;;;;;;5977145;29;20037;-76
2023/10/01 01:18:36;;;;;;;10.25;4.00;;;20.50;59.30;;;;;;5977419;29;20041;-78
2023/10/01 01:21:42;;;;;;;12.60;3.75;;;20.60;59.40;;;;;;6016780;29;20084;-77
2023/10/01 01:24:42;;;;;;;18.15;4.35;;;20.50;59.30;;;;;;6002682;29;20130;-81
2023/10/01 01:27:43;;;;;;;14.55;3.67;;;20.50;59.90;;;;;;5986557;29;20034;-77
2023/10/01 01:30:47;;;;;;;11.73;3.35;;;20.50;59.30;;;;;;5986932;29;20132;-78
2023/10/01 01:33:55;;;;;;;10.93;3.63;;;20.50;59.40;;;;;;5980931;29;20045;-79
2023/10/01 01:36:57;;;;;;;11.55;3.75;;;20.40;59.40;;;;;;5972375;29;20034;-77
2023/10/01 01:39:59;;;;;;;8.30;3.45;;;20.40;59.40;;;;;;5976081;29;20072;-78
2023/10/01 01:43:04;;;;;;;15.98;4.13;;;20.40;59.40;;;;;;5986708;29;20106;-77
2023/10/01 01:46:08;;;;;;;13.07;3.72;;;20.50;59.30;;;;;;5970162;29;20121;-77
2023/10/01 01:49:10;;;;;;;14.30;4.10;;;20.50;59.30;;;;;;5987981;29;20034;-77
2023/10/01 01:52:12;;;;;;;14.20;3.65;;;20.50;59.30;;;;;;5975614;29;20064;-78
2023/10/01 01:55:25;;;;;;;10.88;4.20;;;20.40;59.30;;;;;;5992640;29;20049;-80
2023/10/01 01:58:26;;;;;;;22.02;4.20;;;20.40;59.50;;;;;;5977650;29;20045;-77
2023/10/01 02:01:29;;;;;;;16.17;4.13;;;20.40;59.60;;;;;;5975117;29;20069;-79
2023/10/01 02:04:30;;;;;;;11.52;3.75;;;20.30;59.60;;;;;;5975407;29;20041;-76
2023/10/01 02:07:33;;;;;;;13.18;4.40;;;20.30;59.50;;;;;;5975561;29;20573;-77
2023/10/01 02:10:44;;;;;;;15.13;3.88;;;20.30;60.10;;;;;;5988777;29;20454;-77
2023/10/01 02:13:46;;;;;;;19.98;4.43;;;20.30;59.50;;;;;;5975542;29;20060;-77
2023/10/01 02:16:47;;;;;;;12.15;4.00;;;20.20;59.40;;;;;;6003768;29;20516;-76
2023/10/01 02:19:49;;;;;;;12.70;3.90;;;20.30;59.50;;;;;;5977092;29;20049;-79
2023/10/01 02:22:51;;;;;;;12.48;3.47;;;20.30;59.60;;;;;;5972381;29;20105;-76
2023/10/01 02:25:57;;;;;;;12.82;3.45;;;20.20;59.60;;;;;;5967245;29;20043;-77
2023/10/01 02:28:58;;;;;;;11.70;3.60;;;20.20;59.70;;;;;;6000002;29;20072;-77
2023/10/01 02:32:05;;;;;;;8.57;3.00;;;20.20;60.00;;;;;;5978620;29;20042;-77
2023/10/01 02:35:34;;;;;;;10.68;3.75;;;20.10;60.30;;;;;;5982081;29;20448;-77
2023/10/01 02:38:45;;;;;;;11.50;3.75;;;20.10;60.60;;;;;;5966332;29;20402;-78
2023/10/01 02:45:30;;;;;;;14.75;3.88;;;20.00;61.10;;;;;;5987143;29;20387;-77
2023/10/01 02:48:31;;;;;;;12.55;3.88;;;19.90;61.30;;;;;;6005775;29;20038;-77
2023/10/01 02:51:37;;;;;;;10.68;3.95;;;19.80;61.40;;;;;;5967145;29;20129;-78
2023/10/01 02:54:38;;;;;;;16.83;4.00;;;19.90;61.70;;;;;;5996738;29;20102;-79
2023/10/01 02:57:40;;;;;;;18.25;4.63;;;19.90;61.70;;;;;;5981767;29;20663;-76
2023/10/01 03:00:42;;;;;;;13.43;4.10;;;19.80;61.70;;;;;;5982428;29;20042;-79
2023/10/01 03:03:43;;;;;;;11.73;4.20;;;19.80;61.80;;;;;;5983187;29;20460;-78
2023/10/01 03:06:57;;;;;;;10.68;3.65;;;19.80;61.90;;;;;;5991211;29;20133;-76
2023/10/01 03:10:00;;;;;;;15.25;4.85;;;19.80;62.00;;;;;;5988992;29;20038;-78
2023/10/01 03:13:14;;;;;;;12.00;3.70;;;19.70;62.10;;;;;;5985169;29;20039;-77
2023/10/01 03:19:36;;;;;;;8.93;3.70;;;19.60;62.40;;;;;;5981786;29;20052;-77
2023/10/01 03:22:37;;;;;;;10.20;3.40;;;19.80;62.70;;;;;;5981522;29;20067;-76
2023/10/01 03:25:56;;;;;;;13.90;4.22;;;19.60;62.60;;;;;;6005851;29;20042;-77
2023/10/01 03:32:32;;;;;;;13.18;3.95;;;19.60;62.40;;;;;;5934774;29;19991;-79
2023/10/01 03:35:34;;;;;;;11.90;3.15;;;19.60;62.10;;;;;;5955097;29;20047;-78
2023/10/01 03:38:47;;;;;;;20.83;4.72;;;19.60;62.10;;;;;;5940984;29;20042;-75
2023/10/01 03:42:03;;;;;;;12.68;3.67;;;19.60;62.10;;;;;;5922985;30;20054;-77
2023/10/01 03:48:19;;;;;;;14.05;4.15;;;19.60;62.10;;;;;;5956015;29;20852;-77
2023/10/01 03:51:28;;;;;;;12.52;4.10;;;19.60;62.90;;;;;;5941676;29;20093;-76
2023/10/01 03:58:05;;;;;;;8.02;3.42;;;19.70;62.50;;;;;;5956750;29;20043;-79
2023/10/01 04:01:26;;;;;;;12.07;3.70;;;19.50;62.50;;;;;;5920663;29;20111;-77
2023/10/01 04:04:31;;;;;;;13.38;3.60;;;19.40;62.70;;;;;;5933390;30;20516;-78
2023/10/01 04:07:43;;;;;;;12.02;3.33;;;19.40;62.90;;;;;;5950757;29;20042;-79
2023/10/01 04:10:50;;;;;;;12.48;3.88;;;19.40;63.10;;;;;;5991342;29;20476;-78
2023/10/01 04:14:08;;;;;;;10.95;3.42;;;19.30;63.20;;;;;;5979987;29;20050;-78
2023/10/01 04:17:13;;;;;;;13.15;5.15;;;19.30;63.20;;;;;;5982970;29;20058;-78
2023/10/01 04:20:19;;;;;;;12.60;4.47;;;19.30;63.20;;;;;;6004390;29;20046;-76
2023/10/01 04:23:47;;;;;;;10.23;4.22;;;19.30;63.40;;;;;;6004042;29;20133;-78
2023/10/01 04:26:42;;;;;;;11.63;4.32;;;19.30;63.40;;;;;;6004202;29;20070;-78
2023/10/01 04:29:44;;;;;;;14.65;4.00;;;19.30;63.70;;;;;;6004585;29;20037;-78
2023/10/01 04:32:47;;;;;;;12.77;3.50;;;19.20;63.90;;;;;;5987636;29;20068;-78
2023/10/01 04:35:51;;;;;;;15.32;4.88;;;19.20;64.10;;;;;;5987721;29;20137;-76
2023/10/01 04:39:00;;;;;;;11.60;4.22;;;19.10;64.10;;;;;;5988808;29;20030;-76
2023/10/01 04:42:00;;;;;;;;;;;19.10;64.20;;;;;;5977044;29;20035;-75
2023/10/01 04:45:22;;;;;;;16.63;4.32;;;19.10;64.20;;;;;;5993231;29;20165;-81
2023/10/01 04:48:22;;;;;;;17.50;3.95;;;19.10;64.00;;;;;;5974320;29;20035;-78
2023/10/01 04:51:24;;;;;;;14.52;4.47;;;19.10;64.10;;;;;;5979886;29;20665;-77
2023/10/01 04:54:26;;;;;;;17.00;4.03;;;19.20;64.00;;;;;;5980906;29;20038;-75
2023/10/01 04:57:36;;;;;;;11.52;4.25;;;19.10;63.90;;;;;;5964754;29;20045;-76
2023/10/01 05:00:37;;;;;;;13.88;4.00;;;19.20;63.80;;;;;;6000179;29;20046;-77
2023/10/01 05:03:39;;;;;;;17.02;4.80;;;19.20;63.70;;;;;;6027074;29;20033;-76
2023/10/01 05:06:43;;;;;;;14.02;3.95;;;19.20;63.70;;;;;;6009857;29;20052;-76
2023/10/01 05:09:44;;;;;;;15.35;4.60;;;19.10;63.60;;;;;;6010362;29;20038;-78
2023/10/01 05:12:44;;;;;;;14.10;4.40;;;19.10;63.60;;;;;;5990334;29;20077;-78
2023/10/01 05:15:49;;;;;;;12.27;4.45;;;19.10;63.60;;;;;;6002728;29;20061;-76
2023/10/01 05:19:03;;;;;;;15.80;4.22;;;19.10;63.70;;;;;;6003755;29;20034;-77
2023/10/01 05:22:04;;;;;;;15.35;4.30;;;19.10;63.80;;;;;;5995389;29;20038;-77
2023/10/01 05:25:05;;;;;;;14.07;4.35;;;19.10;63.90;;;;;;5972196;29;20494;-77
2023/10/01 05:28:23;;;;;;;16.25;4.20;;;19.00;63.90;;;;;;6005156;29;20124;-78
2023/10/01 05:31:26;;;;;;;12.85;4.50;;;19.00;64.00;;;;;;5991300;29;20153;-77
2023/10/01 05:34:28;;;;;;;11.75;3.95;;;19.00;64.10;;;;;;5990914;29;20503;-77
2023/10/01 05:37:36;;;;;;;11.88;4.00;;;19.00;64.30;;;;;;5991242;29;20053;-78
2023/10/01 05:40:40;;;;;;;15.23;4.22;;;18.90;64.40;;;;;;5976092;29;20429;-76
2023/10/01 05:43:50;;;;;;;11.07;4.18;;;18.90;64.50;;;;;;5991126;29;20042;-78
2023/10/01 05:46:51;;;;;;;10.93;3.58;;;18.90;64.60;;;;;;6007490;29;20046;-79
2023/10/01 05:49:53;;;;;;;17.50;4.60;;;18.90;64.60;;;;;;5992120;29;20607;-76
2023/10/01 05:52:55;;;;;;;21.17;5.38;;;18.90;64.80;;;;;;5975333;29;20041;-78
2023/10/01 05:56:06;;;;;;;11.38;3.88;;;18.80;64.80;;;;;;6005903;29;20189;-76
2023/10/01 05:59:09;;;;;;;14.43;4.40;;;18.80;64.90;;;;;;5998866;29;20101;-78
2023/10/01 06:02:28;;;;;;;18.73;4.15;;;18.80;64.90;;;;;;5975644;29;20041;-78
2023/10/01 06:08:45;;;;;;;13.95;4.22;;;18.80;64.90;;;;;;6006932;29;20068;-78
2023/10/01 06:11:49;;;;;;;11.32;3.83;;;18.80;64.90;;;;;;5997801;29;20038;-77
2023/10/01 06:15:02;;;;;;;18.45;4.53;;;18.70;64.80;;;;;;5984394;29;20037;-77
2023/10/01 06:18:05;;;;;;;12.20;3.97;;;18.70;64.90;;;;;;5968828;29;20042;-77
2023/10/01 06:21:07;;;;;;;12.60;3.92;;;18.70;65.10;;;;;;5985808;29;20337;-77
2023/10/01 06:24:10;;;;;;;13.80;4.25;;;18.60;65.10;;;;;;5967302;29;20063;-78
2023/10/01 06:27:17;;;;;;;11.43;3.95;;;18.60;65.30;;;;;;5987265;29;20033;-78
2023/10/01 06:30:20;;;;;;;10.07;4.13;;;18.60;65.30;;;;;;5991226;29;20033;-77
2023/10/01 06:33:29;;;;;;;16.92;4.40;;;18.60;65.30;;;;;;5952291;29;20022;-77
2023/10/01 06:36:31;;;;;;;14.20;4.40;;;18.60;65.30;;;;;;5982842;29;20102;-77
2023/10/01 06:39:35;;;;;;;11.88;4.20;;;18.70;65.20;;;;;;5966516;29;20068;-78
2023/10/01 06:42:37;;;;;;;10.93;4.20;;;18.70;65.10;;;;;;5984641;29;20031;-77
2023/10/01 06:45:41;;;;;;;11.10;3.72;;;18.80;65.00;;;;;;5982352;29;20468;-77
2023/10/01 06:48:42;;;;;;;11.48;3.97;;;18.80;65.00;;;;;;5966682;29;20133;-76
2023/10/01 06:51:46;;;;;;;9.60;4.05;;;19.00;65.10;;;;;;5966947;29;20030;-77
2023/10/01 06:54:47;;;;;;;15.30;4.82;;;18.90;65.00;;;;;;5985683;29;20075;-78
2023/10/01 06:57:50;;;;;;;18.80;4.93;;;18.90;64.90;;;;;;5981160;29;20651;-77
2023/10/01 07:00:52;;;;;;;13.93;4.53;;;18.90;64.90;;;;;;5966250;29;20038;-78
2023/10/01 07:03:54;;;;;;;18.13;4.88;;;19.00;64.80;;;;;;5982028;29;20121;-77
2023/10/01 07:06:57;;;;;;;11.05;4.28;;;19.00;64.70;;;;;;5966975;29;20054;-77
2023/10/01 07:10:00;;;;;;;16.60;4.47;;;19.10;64.60;;;;;;5969884;29;20091;-78
2023/10/01 07:13:07;;;;;;;14.82;4.97;;;19.10;64.30;;;;;;5988099;29;20522;-78
2023/10/01 07:16:08;;;;;;;10.50;5.30;;;19.10;64.30;;;;;;5974452;29;20042;-79
2023/10/01 07:19:13;;;;;;;17.60;5.35;;;19.20;64.30;;;;;;6004384;29;20042;-77
2023/10/01 07:22:24;;;;;;;13.90;4.55;;;19.20;64.20;;;;;;5989455;29;20046;-77
2023/10/01 07:25:43;;;;;;;19.25;5.20;;;19.30;64.10;;;;;;5991107;29;20121;-77
2023/10/01 07:28:56;;;;;;;13.90;3.78;;;19.40;64.10;;;;;;5940447;29;20062;-76
2023/10/01 07:31:58;;;;;;;12.95;4.18;;;19.60;63.80;;;;;;5942719;29;20046;-77
2023/10/01 07:35:07;;;;;;;15.18;4.72;;;19.70;63.50;;;;;;5949947;29;20115;-76
2023/10/01 07:38:15;;;;;;;9.98;3.63;;;19.90;63.10;;;;;;5943466;29;20679;-77
2023/10/01 07:41:16;;;;;;;13.07;4.35;;;20.00;62.30;;;;;;5958082;29;20062;-80
2023/10/01 07:44:18;;;;;;;12.02;3.78;;;20.20;61.90;;;;;;5942430;29;20058;-76
2023/10/01 07:47:29;;;;;;;8.88;3.63;;;20.30;61.30;;;;;;5927804;29;20030;-78
2023/10/01 07:50:35;;;;;;;13.98;3.92;;;20.50;60.70;;;;;;5959127;29;20031;-76
2023/10/01 07:53:42;;;;;;;12.85;3.80;;;20.50;60.20;;;;;;5975253;29;20095;-77
2023/10/01 07:56:48;;;;;;;15.93;3.95;;;20.60;60.00;;;;;;5965617;29;20068;-77
2023/10/01 07:59:53;;;;;;;14.43;4.25;;;20.70;59.80;;;;;;5965146;29;20376;-77
2023/10/01 08:03:43;;;;;;;12.13;3.70;;;20.80;59.40;;;;;;5981913;29;20130;-77
2023/10/01 08:06:25;;;;;;;10.95;3.78;;;20.90;59.20;;;;;;5953265;29;20515;-79
2023/10/01 08:09:26;;;;;;;11.18;3.78;;;20.90;58.90;;;;;;5980796;29;20038;-77
2023/10/01 08:12:29;;;;;;;12.93;3.72;;;21.00;58.70;;;;;;6005166;29;20191;-77
2023/10/01 08:15:32;;;;;;;12.95;3.75;;;21.10;58.80;;;;;;5988088;29;20034;-75
2023/10/01 08:18:35;;;;;;;14.13;4.40;;;21.30;58.60;;;;;;6004067;29;20036;-78
2023/10/01 08:21:37;;;;;;;9.23;3.70;;;21.40;58.10;;;;;;6002441;29;20034;-77
2023/10/01 08:24:38;;;;;;;12.02;4.25;;;21.60;57.80;;;;;;5972084;29;20399;-77
2023/10/01 08:28:26;;;;;;;12.25;4.00;;;21.70;57.60;;;;;;5979305;29;20038;-76
2023/10/01 08:31:01;;;;;;;14.90;3.72;;;21.90;57.30;;;;;;5964508;29;20035;-76
2023/10/01 08:34:22;;;;;;;10.18;4.13;;;21.70;56.70;;;;;;5979970;29;20050;-76
2023/10/01 08:37:23;;;;;;;12.60;4.60;;;22.10;56.70;;;;;;5979835;29;20045;-77
2023/10/01 08:40:41;;;;;;;12.02;4.45;;;22.20;56.20;;;;;;6058312;24;20054;-76
2023/10/01 08:43:44;;;;;;;11.77;3.63;;;22.90;56.00;;;;;;6010502;29;20038;-75
2023/10/01 08:46:47;;;;;;;12.82;4.03;;;22.30;55.40;;;;;;6009559;29;20037;-77
2023/10/01 08:49:52;;;;;;;13.90;4.35;;;22.30;55.30;;;;;;6009592;29;20037;-76
2023/10/01 08:52:58;;;;;;;18.30;4.47;;;22.40;55.20;;;;;;6009924;29;20041;-78
2023/10/01 08:59:23;;;;;;;11.60;4.60;;;22.60;54.90;;;;;;6026629;29;20052;-78
2023/10/01 09:02:24;;;;;;;19.10;5.65;;;22.70;54.60;;;;;;6003359;29;20049;-79
2023/10/01 09:05:25;;;;;;;12.35;4.38;;;22.80;54.50;;;;;;6006525;29;20114;-77
2023/10/01 09:08:31;;;;;;;17.45;4.72;;;22.90;54.10;;;;;;6010566;29;20038;-78
2023/10/01 09:11:42;;;;;;;14.82;5.90;;;23.00;53.80;;;;;;6014556;29;20052;-77
2023/10/01 09:14:42;;;;;;;15.85;5.25;;;23.00;53.70;;;;;;6013999;29;20216;-77
2023/10/01 09:17:56;;;;;;;12.77;5.05;;;23.10;53.50;;;;;;6031026;29;20110;-77
2023/10/01 09:21:06;;;;;;;17.65;5.57;;;23.20;53.50;;;;;;6012380;29;20431;-77
2023/10/01 09:24:35;;;;;;;14.05;4.28;;;23.30;53.40;;;;;;6030005;29;20098;-77
2023/10/01 09:27:36;;;;;;;9.80;3.80;;;23.30;53.50;;;;;;6023369;29;20034;-77
2023/10/01 09:30:57;;;;;;;10.48;3.50;;;23.40;53.30;;;;;;5990712;29;20074;-78
2023/10/01 09:34:29;;;;;;;14.80;3.70;;;23.20;53.30;;;;;;6007358;29;20155;-77
2023/10/01 09:37:52;;;;;;;18.38;4.43;;;23.50;53.60;;;;;;6005375;29;20046;-77
2023/10/01 09:40:57;;;;;;;11.07;4.40;;;23.60;53.40;;;;;;5991563;29;20106;-77
2023/10/01 09:43:58;;;;;;;13.70;5.15;;;23.80;53.30;;;;;;6013796;29;20391;-76
2023/10/01 09:47:10;;;;;;;13.40;4.18;;;23.80;53.10;;;;;;5993216;29;20042;-79
2023/10/01 09:50:15;;;;;;;13.57;4.72;;;24.00;52.80;;;;;;5990347;29;20048;-77
2023/10/01 09:53:31;;;;;;;14.73;5.32;;;24.00;52.50;;;;;;6003889;29;20087;-79
2023/10/01 09:59:46;;;;;;;14.25;4.82;;;24.10;52.10;;;;;;6008951;29;20222;-78
2023/10/01 10:02:51;;;;;;;11.40;4.38;;;24.20;52.10;;;;;;6008931;29;20034;-77
2023/10/01 10:05:53;;;;;;;14.23;4.22;;;24.30;52.00;;;;;;5991127;29;20045;-78
2023/10/01 10:09:03;;;;;;;13.48;5.15;;;24.40;51.90;;;;;;6006333;29;20074;-77
2023/10/01 10:12:07;;;;;;;14.50;4.43;;;24.50;51.70;;;;;;5998590;29;20057;-77
2023/10/01 10:15:08;;;;;;;18.20;6.70;;;24.70;51.50;;;;;;6004250;29;20147;-76
2023/10/01 10:18:15;;;;;;;24.23;8.90;;;24.80;51.30;;;;;;6020965;29;20037;-76
2023/10/01 10:21:16;;;;;;;16.17;5.05;;;24.90;50.80;;;;;;5994000;29;20059;-76
2023/10/01 10:24:28;;;;;;;16.17;5.82;;;25.20;50.50;;;;;;6011888;29;20465;-79
2023/10/01 10:27:49;;;;;;;18.15;5.72;;;25.60;49.90;;;;;;5996367;29;20041;-77
2023/10/01 10:31:35;;;;;;;19.08;5.20;;;25.90;48.60;;;;;;6010442;29;20159;-78
2023/10/01 10:34:36;;;;;;;12.63;4.38;;;26.10;48.00;;;;;;6006361;29;20044;-76
2023/10/01 10:37:38;;;;;;;14.05;4.30;;;26.40;47.70;;;;;;6004511;29;20060;-77
2023/10/01 10:41:07;;;;;;;13.65;4.47;;;26.70;47.00;;;;;;5991776;29;20053;-78
2023/10/01 10:44:08;;;;;;;9.73;3.70;;;26.90;46.60;;;;;;6009934;29;20038;-76
2023/10/01 10:47:09;;;;;;;9.90;4.22;;;27.20;45.90;;;;;;6025844;29;20040;-78
2023/10/01 10:50:15;;;;;;;14.52;4.20;;;27.60;45.60;;;;;;6002541;29;20402;-78
2023/10/01 10:53:22;;;;;;;10.07;4.07;;;27.80;45.20;;;;;;6012963;29;20030;-77
2023/10/01 10:56:35;;;;;;;9.38;3.67;;;28.10;44.30;;;;;;6010028;29;20042;-78
2023/10/01 10:59:36;;;;;;;11.13;3.75;;;28.30;43.70;;;;;;5993048;29;20044;-76
2023/10/01 11:02:42;;;;;;;12.27;4.65;;;28.60;43.40;;;;;;6027917;29;20034;-78
2023/10/01 11:05:49;;;;;;;10.90;3.97;;;28.90;43.30;;;;;;5995526;29;20033;-77
2023/10/01 11:08:53;;;;;;;15.10;4.15;;;29.20;42.40;;;;;;6013611;29;20109;-77
2023/10/01 11:12:21;;;;;;;14.68;4.55;;;29.40;41.60;;;;;;5997442;29;20092;-77
2023/10/01 11:15:25;;;;;;;11.90;4.18;;;29.70;41.30;;;;;;5989210;29;20146;-76
2023/10/01 11:19:12;;;;;;;21.92;6.03;;;30.10;40.70;;;;;;5981650;24;20049;-77
2023/10/01 11:22:22;;;;;;;9.00;4.22;;;30.50;40.00;;;;;;5987814;29;20030;-77
2023/10/01 11:25:23;;;;;;;9.25;4.00;;;31.20;39.00;;;;;;6009755;29;20045;-78
2023/10/01 11:28:29;;;;;;;14.02;4.53;;;31.60;37.60;;;;;;6010737;29;20116;-78
2023/10/01 11:31:31;;;;;;;13.27;4.32;;;31.90;37.10;;;;;;5976361;29;20041;-76
2023/10/01 11:34:43;;;;;;;10.50;4.07;;;32.30;36.60;;;;;;5999280;29;20132;-76
2023/10/01 11:37:44;;;;;;;11.93;3.95;;;32.80;35.80;;;;;;5995058;29;20033;-78
2023/10/01 11:44:07;;;;;;;13.93;4.18;;;33.60;34.50;;;;;;6002312;29;20042;-77
2023/10/01 11:47:25;;;;;;;11.60;4.50;;;34.00;33.80;;;;;;5988150;29;20082;-77
2023/10/01 11:50:25;;;;;;;9.37;4.03;;;34.30;32.80;;;;;;5999673;29;20388;-76
2023/10/01 11:53:29;;;;;;;9.65;3.92;;;34.70;32.40;;;;;;6019706;29;20271;-76
2023/10/01 11:56:32;;;;;;;9.43;3.58;;;35.00;31.40;;;;;;6013872;29;20025;-76
2023/10/01 11:59:42;;;;;;;10.40;4.15;;;35.30;31.10;;;;;;6009773;29;20041;-76
2023/10/01 12:02:46;;;;;;;11.18;4.45;;;35.70;30.40;;;;;;6027073;29;20026;-77
2023/10/01 12:05:48;;;;;;;11.32;4.20;;;36.10;29.90;;;;;;6026802;29;20403;-77
2023/10/01 12:08:49;;;;;;;15.57;4.10;;;36.40;29.80;;;;;;5995356;29;20120;-77
2023/10/01 12:12:03;;;;;;;10.80;4.20;;;36.70;29.00;;;;;;5999594;29;20068;-78
2023/10/01 12:24:59;;;;;;;16.25;4.40;;;37.80;27.80;;;;;;4942202;27;20049;-80
2023/10/01 12:28:15;;;;;;;7.43;3.80;;;38.00;27.30;;;;;;6004003;29;20104;-78
2023/10/01 12:31:23;;;;;;;11.82;4.35;;;37.80;27.30;;;;;;5979917;29;20042;-78
2023/10/01 12:34:25;;;;;;;12.52;4.18;;;38.00;27.30;;;;;;5980029;29;20054;-77
2023/10/01 12:37:38;;;;;;;11.02;4.13;;;38.30;27.10;;;;;;5980797;29;20153;-76
2023/10/01 12:40:40;;;;;;;9.30;4.03;;;38.70;26.80;;;;;;5985733;29;20034;-77
2023/10/01 12:43:41;;;;;;;10.35;3.88;;;38.90;26.50;;;;;;5985694;29;20043;-77
2023/10/01 12:46:51;;;;;;;8.60;4.10;;;39.00;26.30;;;;;;5984629;29;20065;-75
2023/10/01 12:49:58;;;;;;;10.73;4.50;;;39.00;26.20;;;;;;5984832;29;20037;-76
2023/10/01 12:56:43;;;;;;;9.50;4.38;;;37.20;27.40;;;;;;5988665;29;20093;-79
2023/10/01 14:48:16;;;;;;;;;;;;;;;;;;;;;
2023/10/01 15:16:01;;;;;;;;;;;;;;;;;;;;;
2023/10/01 15:19:27;;;;;;;12.35;4.85;;;28.60;38.70;;;;;;5868013;30;20044;-77
2023/10/01 15:22:28;;;;;;;14.98;4.93;;;28.60;38.70;;;;;;5868416;30;20140;-78
2023/10/01 15:25:32;;;;;;;10.75;4.43;;;28.60;38.80;;;;;;5867988;30;20482;-77
2023/10/01 15:28:33;;;;;;;11.80;4.70;;;28.60;38.90;;;;;;5868338;30;20159;-77
2023/10/01 15:31:34;;;;;;;10.05;4.55;;;28.60;39.00;;;;;;5868055;30;20044;-77
2023/10/01 15:34:38;;;;;;;13.35;4.43;;;28.60;39.00;;;;;;5838387;30;20044;-77
2023/10/01 15:37:39;;;;;;;10.13;3.92;;;28.60;39.20;;;;;;5867368;30;20142;-77
2023/10/01 15:40:51;;;;;;;10.25;4.57;;;28.60;39.30;;;;;;5853193;30;20107;-78
2023/10/01 15:43:52;;;;;;;12.55;4.88;;;28.50;39.30;;;;;;5861595;30;20139;-78
2023/10/01 15:46:59;;;;;;;18.42;5.45;;;28.50;39.30;;;;;;5901148;30;20149;-77
2023/10/01 15:50:07;;;;;;;11.63;4.18;;;28.50;39.30;;;;;;5930791;29;20056;-78
2023/10/01 15:53:17;;;;;;;10.20;4.32;;;28.50;39.30;;;;;;5988859;29;20108;-78
2023/10/01 15:56:30;;;;;;;14.27;5.43;;;28.50;39.90;;;;;;6003353;29;20129;-76
2023/10/01 15:59:31;;;;;;;12.68;4.25;;;28.50;39.30;;;;;;6003994;29;20535;-78
2023/10/01 16:02:33;;;;;;;11.60;4.60;;;28.50;39.40;;;;;;5987708;29;20034;-77
2023/10/01 16:05:40;;;;;;;10.25;4.22;;;28.50;39.50;;;;;;5972163;29;20495;-77
2023/10/01 16:08:42;;;;;;;17.08;4.32;;;28.40;39.60;;;;;;5987044;29;20392;-77
2023/10/01 16:11:53;;;;;;;13.48;4.65;;;28.40;39.70;;;;;;5987772;29;20383;-77
2023/10/01 16:14:56;;;;;;;14.52;5.07;;;28.30;39.70;;;;;;6004011;29;20041;-79
2023/10/01 16:17:58;;;;;;;14.50;5.15;;;28.30;39.80;;;;;;5987290;29;20037;-77
2023/10/01 16:21:04;;;;;;;14.45;5.43;;;28.30;39.80;;;;;;6017962;29;20148;-76
2023/10/01 16:24:06;;;;;;;11.25;4.15;;;28.20;39.80;;;;;;5987457;29;20041;-78
2023/10/01 16:27:26;;;;;;;11.10;4.93;;;28.30;39.90;;;;;;5972367;29;20045;-78
2023/10/01 16:30:29;;;;;;;16.20;5.15;;;28.30;40.00;;;;;;5987160;29;20082;-77
2023/10/01 16:33:42;;;;;;;13.73;4.97;;;28.20;40.00;;;;;;5986940;29;20034;-77
2023/10/01 16:36:44;;;;;;;12.90;5.32;;;28.20;40.20;;;;;;6003846;29;20074;-78
2023/10/01 16:39:45;;;;;;;12.32;5.10;;;28.10;40.30;;;;;;5986805;29;20030;-76
2023/10/01 16:42:48;;;;;;;14.38;4.38;;;28.00;40.30;;;;;;5987251;29;20445;-78
2023/10/01 16:45:50;;;;;;;10.35;4.45;;;28.00;40.40;;;;;;5987203;29;20041;-78
2023/10/01 16:48:58;;;;;;;12.70;4.40;;;27.90;40.40;;;;;;5976056;29;20517;-79
2023/10/01 16:52:02;;;;;;;13.43;5.53;;;27.90;40.60;;;;;;6000148;29;20038;-77
2023/10/01 16:55:04;;;;;;;12.25;5.40;;;27.90;40.80;;;;;;5990797;29;20049;-78
2023/10/01 16:58:11;;;;;;;12.18;4.35;;;27.80;41.10;;;;;;6012629;29;20459;-78
2023/10/01 17:01:14;;;;;;;17.02;5.70;;;27.70;41.40;;;;;;5972074;29;20045;-78
2023/10/01 17:04:34;;;;;;;13.13;5.38;;;27.60;41.70;;;;;;5972621;29;20106;-77
2023/10/01 17:07:41;;;;;;;;;;;27.50;42.00;;;;;;6004819;29;20034;-77
2023/10/01 17:10:42;;;;;;;14.30;5.10;;;27.40;42.30;;;;;;5986526;29;19923;-77
2023/10/01 17:13:45;;;;;;;17.52;5.22;;;27.30;42.50;;;;;;6001689;29;20114;-78
2023/10/01 17:16:48;;;;;;;15.55;5.63;;;27.20;42.80;;;;;;5986630;29;20029;-77
2023/10/01 17:19:50;;;;;;;12.32;4.75;;;27.10;43.20;;;;;;6002791;29;20038;-79
2023/10/01 17:22:52;;;;;;;15.63;5.28;;;27.10;43.60;;;;;;5987395;29;20034;-77
2023/10/01 17:26:00;;;;;;;15.10;5.95;;;27.00;44.00;;;;;;6006233;29;20968;-79
2023/10/01 17:29:03;;;;;;;13.70;5.57;;;26.90;44.20;;;;;;6005950;29;20033;-77
2023/10/01 17:32:12;;;;;;;12.98;4.93;;;26.80;44.40;;;;;;6007217;29;20442;-78
2023/10/01 17:35:17;;;;;;;14.00;5.20;;;26.70;44.50;;;;;;6005864;29;20045;-77
2023/10/01 17:38:19;;;;;;;17.55;5.45;;;26.60;44.90;;;;;;6005395;29;20099;-77
2023/10/01 17:41:20;;;;;;;18.30;4.90;;;26.50;45.20;;;;;;5990599;29;20050;-78
2023/10/01 17:44:24;;;;;;;14.20;4.68;;;26.50;45.50;;;;;;6005746;29;20108;-77
2023/10/01 17:47:29;;;;;;;13.65;4.55;;;26.40;45.70;;;;;;6007934;29;20069;-78
2023/10/01 17:50:31;;;;;;;14.52;5.25;;;26.40;46.00;;;;;;5991003;29;20037;-78
2023/10/01 17:53:32;;;;;;;12.98;4.45;;;26.40;46.20;;;;;;5990925;29;20037;-79
2023/10/01 17:56:35;;;;;;;14.95;6.05;;;26.30;46.50;;;;;;5988314;29;20056;-78
2023/10/01 17:59:36;;;;;;;16.50;6.68;;;25.80;46.50;;;;;;5984504;29;20038;-78
2023/10/01 18:02:41;;;;;;;17.90;7.55;;;26.20;47.00;;;;;;5975163;29;20054;-76
2023/10/01 18:05:58;;;;;;;20.08;7.38;;;26.20;47.10;;;;;;5984193;29;20038;-78
2023/10/01 18:09:00;;;;;;;36.40;10.50;;;26.20;47.20;;;;;;5967115;29;20118;-78
2023/10/01 18:12:13;;;;;;;16.83;6.28;;;26.20;47.40;;;;;;5967579;29;20077;-79
2023/10/01 18:15:19;;;;;;;15.85;6.07;;;26.10;47.40;;;;;;5985037;29;20034;-78
2023/10/01 18:18:24;;;;;;;19.83;5.43;;;26.10;47.40;;;;;;5991654;29;20069;-77
2023/10/01 18:21:25;;;;;;;21.38;6.43;;;26.10;47.60;;;;;;5969892;29;20038;-77
2023/10/01 18:24:27;;;;;;;13.32;5.53;;;26.00;47.50;;;;;;5979169;29;20042;-81
2023/10/01 18:27:27;;;;;;;19.35;5.63;;;26.00;47.50;;;;;;5998244;29;20129;-78
2023/10/01 18:30:28;;;;;;;15.82;5.72;;;26.20;47.50;;;;;;5983804;29;20034;-78
2023/10/01 18:33:35;;;;;;;22.05;7.38;;;25.90;47.20;;;;;;5984191;29;20034;-77
2023/10/01 18:36:39;;;;;;;16.85;6.10;;;25.90;47.20;;;;;;5965350;29;20604;-79
2023/10/01 18:39:42;;;;;;;19.33;6.10;;;25.90;47.20;;;;;;5981917;29;20060;-76
2023/10/01 18:42:43;;;;;;;19.23;5.95;;;25.90;47.30;;;;;;5993687;29;20528;-76
2023/10/01 18:45:44;;;;;;;21.42;6.65;;;25.80;47.20;;;;;;5987447;29;20026;-77
2023/10/01 18:48:45;;;;;;;22.30;7.55;;;25.80;47.30;;;;;;5992415;29;20038;-76
2023/10/01 18:51:52;;;;;;;17.88;6.47;;;25.70;47.60;;;;;;5988869;29;20037;-78
2023/10/01 18:54:53;;;;;;;15.40;4.95;;;25.70;47.80;;;;;;5988562;29;20041;-76
2023/10/01 18:57:54;;;;;;;20.38;6.32;;;25.60;48.20;;;;;;5988885;29;20110;-78